NCAR-RAP Real-Time Weather Data

Output produced by METARs form (31 October 2014  17:39 UTC)
found at http://weather.rap.ucar.edu/surface/
 
Conditions at: KALB observed 31 October 2014  16:51 UTC
Temperature: 10.6°C (51°F)
Dewpoint: 0.6°C (33°F) [RH = 50%]
Pressure (altimeter): 30.00 inches Hg (1016.0 mb)
[Sea-level pressure: 1016.1 mb]
Winds: from the NNW (330 degrees) at 3 MPH (3 knots; 1.6 m/s)
Visibility: 10 or more miles (16+ km)
Ceiling: 26000 feet AGL
Clouds: few clouds at 3500 feet AGL
few clouds at 4400 feet AGL
broken clouds at 26000 feet AGL
Present Weather: no significant weather observed at this time
KALB 311651Z 33003KT 10SM FEW035 FEW044 BKN260 11/01 A3000 RMK AO2 SLP161 T01060006

Conditions at: KALB observed 31 October 2014  15:51 UTC
Temperature: 9.4°C (49°F)
Dewpoint: 1.1°C (34°F) [RH = 56%]
Pressure (altimeter): 30.02 inches Hg (1016.7 mb)
[Sea-level pressure: 1016.9 mb]
Winds: from the NNE (30 degrees) at 5 MPH (4 knots; 2.1 m/s)
Visibility: 10 or more miles (16+ km)
Ceiling: at least 12,000 feet AGL
Clouds: few clouds at 2900 feet AGL
scattered clouds at 4000 feet AGL
scattered clouds at 26000 feet AGL
Present Weather: no significant weather observed at this time
KALB 311551Z 03004KT 10SM FEW029 SCT040 SCT260 09/01 A3002 RMK AO2 SLP169 T00940011

Conditions at: KALB observed 31 October 2014  14:51 UTC
Temperature: 6.7°C (44°F)
Dewpoint: 2.2°C (36°F) [RH = 73%]
Pressure (altimeter): 30.04 inches Hg (1017.4 mb)
[Sea-level pressure: 1017.4 mb]
Winds: from the N (350 degrees) at 7 MPH (6 knots; 3.1 m/s)
Visibility: 10 or more miles (16+ km)
Ceiling: at least 12,000 feet AGL
Clouds: few clouds at 2500 feet AGL
few clouds at 4200 feet AGL
scattered clouds at 26000 feet AGL
Present Weather: no significant weather observed at this time
KALB 311451Z 35006KT 10SM FEW025 FEW042 SCT260 07/02 A3004 RMK AO2 SLP174 T00670022 58007

Conditions at: KALB observed 31 October 2014  13:58 UTC
Temperature: 3.3°C (38°F)
Dewpoint: 2.2°C (36°F) [RH = 92%]
Pressure (altimeter): 30.06 inches Hg (1018.0 mb)
Winds: from the NNW (340 degrees) at 3 MPH (3 knots; 1.6 m/s)
Visibility: 10 or more miles (16+ km)
Ceiling: 25000 feet AGL
Clouds: scattered clouds at 200 feet AGL
scattered clouds at 4000 feet AGL
broken clouds at 25000 feet AGL
Present Weather: no significant weather observed at this time
KALB 311358Z 34003KT 10SM R01/3500VP6000FT SCT002 SCT040 BKN250 03/02 A3006 RMK AO2 T00330022

Conditions at: KALB observed 31 October 2014  13:50 UTC
Temperature: 3.3°C (38°F)
Dewpoint: 2.2°C (36°F) [RH = 92%]
Pressure (altimeter): 30.06 inches Hg (1018.0 mb)
Winds: from the NNW (340 degrees) at 3 MPH (3 knots; 1.6 m/s)
Visibility: 1.50 miles (2.41 km)
Ceiling: 25000 feet AGL
Clouds: scattered clouds at 100 feet AGL
scattered clouds at 4000 feet AGL
broken clouds at 25000 feet AGL
Present Weather: BCFG BR  (patches of fog, mist)
KALB 311350Z COR 34003KT 1 1/2SM R01/1800V4500FT BCFG BR SCT001 SCT040 BKN250 03/02 A3006 RMK AO2 VIS 1V2 BCFG S-NW-NE T00330022

Conditions at: KALB observed 31 October 2014  13:48 UTC
Temperature: 3.3°C (38°F)
Dewpoint: 2.2°C (36°F) [RH = 92%]
Pressure (altimeter): 30.06 inches Hg (1018.0 mb)
[Sea-level pressure: 1018.2 mb]
Winds: from the NNW (330 degrees) at 5 MPH (4 knots; 2.1 m/s)
Visibility: 0.13 miles (0.21 km)
Ceiling: 25000 feet AGL
Clouds: scattered clouds at 100 feet AGL
scattered clouds at 4000 feet AGL
broken clouds at 25000 feet AGL
Present Weather: BCFG BR  (patches of fog, mist)
KALB 311348Z 33004KT 1/8SM R01/1400V4500FT BCFG BR SCT001 SCT040 BKN250 03/02 A3006 RMK AO2 SFC VIS 1 SLP182 VIS 1/2V1 1/2 BCFG ALQDS T00330022

Conditions at: KALB observed 31 October 2014  13:47 UTC
Temperature: 3.0°C (37°F)
Dewpoint: 2.0°C (36°F) [RH = 93%]
Pressure (altimeter): 30.06 inches Hg (1018.0 mb)
Winds: from the NNW (330 degrees) at 5 MPH (4 knots; 2.1 m/s)
Visibility: 0.13 miles (0.21 km)
Ceiling: 25000 feet AGL
Clouds: scattered clouds at 100 feet AGL
scattered clouds at 4000 feet AGL
broken clouds at 25000 feet AGL
Present Weather: BCFG BR  (patches of fog, mist)
KALB 311347Z 33004KT 1/8SM R01/1200V4500FT BCFG BR SCT001 SCT040 BKN250 03/02 A3006 RMK AO2 SFC VIS 1 VIS 1/2V1 1/2 BCFG ALQDS

Conditions at: KALB observed 31 October 2014  13:40 UTC
Temperature: 2.8°C (37°F)
Dewpoint: 1.7°C (35°F) [RH = 92%]
Pressure (altimeter): 30.06 inches Hg (1018.0 mb)
Winds: from the NNW (340 degrees) at 3 MPH (3 knots; 1.6 m/s)
Visibility: 0.13 miles (0.21 km)
Ceiling: 100 feet AGL
Clouds: broken clouds at 100 feet AGL
broken clouds at 25000 feet AGL
Present Weather: FG  (fog)
KALB 311340Z 34003KT 1/8SM R01/1200V2200FT FG BKN001 BKN250 03/02 A3006 RMK AO2 SFC VIS 1/4 T00280017

Conditions at: KALB observed 31 October 2014  12:51 UTC
Temperature: 0.6°C (33°F)
Dewpoint: 0.0°C (32°F) [RH = 96%]
Pressure (altimeter): 30.06 inches Hg (1018.0 mb)
[Sea-level pressure: 1018.3 mb]
Winds: calm
Visibility: 0.13 miles (0.21 km)
Ceiling: 100 feet AGL
Clouds: broken clouds at 100 feet AGL
broken clouds at 25000 feet AGL
Present Weather: FG  (fog)
KALB 311251Z 00000KT 1/8SM R01/2200V4500FT FG BKN001 BKN250 01/00 A3006 RMK AO2 SFC VIS 1/4 SLP183 T00060000

Conditions at: KALB observed 31 October 2014  12:36 UTC
Temperature: 0.0°C (32°F)
Dewpoint: -0.6°C (31°F) [RH = 96%]
Pressure (altimeter): 30.07 inches Hg (1018.4 mb)
Winds: calm
Visibility: 0.13 miles (0.21 km)
Ceiling: 100 feet AGL
Clouds: broken clouds at 100 feet AGL
broken clouds at 25000 feet AGL
Present Weather: FG  (fog)
KALB 311236Z 00000KT 1/8SM R01/1200V2800FT FG BKN001 BKN250 00/M01 A3007 RMK AO2 SFC VIS 1/4 T00001006

Conditions at: KALB observed 31 October 2014  11:51 UTC
Temperature: 0.0°C (32°F)
Dewpoint: -1.1°C (30°F) [RH = 92%]
Pressure (altimeter): 30.06 inches Hg (1018.0 mb)
[Sea-level pressure: 1018.0 mb]
Winds: calm
Visibility: 0.13 miles (0.21 km)
Ceiling: 100 feet AGL
Clouds: broken clouds at 100 feet AGL
Present Weather: FG  (fog)
KALB 311151Z 00000KT 1/8SM R01/0400FT FG BKN001 00/M01 A3006 RMK AO2 SLP180 I1001 I6001 T00001011 10017 21006 53004

Conditions at: KALB observed 31 October 2014  11:23 UTC
Temperature: 0.0°C (32°F)
Dewpoint: -1.1°C (30°F) [RH = 92%]
Pressure (altimeter): 30.05 inches Hg (1017.7 mb)
Winds: calm
Visibility: 0.06 miles (0.10 km)
Ceiling: indefinite ceiling with vertical visibility of 100 feet AGL
Clouds: obscured sky
Present Weather: FG  (fog)
KALB 311123Z 00000KT 1/16SM R01/0700V1400FT FG VV001 00/M01 A3005 RMK AO2 TWR VIS 1/8 T00001011

Conditions at: KALB observed 31 October 2014  11:14 UTC
Temperature: 0.0°C (32°F)
Dewpoint: -1.7°C (29°F) [RH = 88%]
Pressure (altimeter): 30.05 inches Hg (1017.7 mb)
Winds: from the NNW (330 degrees) at 3 MPH (3 knots; 1.6 m/s)
Visibility: 0.13 miles (0.21 km)
Ceiling: 100 feet AGL
Clouds: broken clouds at 100 feet AGL
Present Weather: FG  (fog)
KALB 311114Z 33003KT 1/8SM R01/1400VP6000FT FG BKN001 00/M02 A3005 RMK AO2 TWR VIS 1/2 T00001017

Conditions at: KALB observed 31 October 2014  11:05 UTC
Temperature: -0.6°C (31°F)
Dewpoint: -1.7°C (29°F) [RH = 92%]
Pressure (altimeter): 30.04 inches Hg (1017.4 mb)
Winds: from the NNW (330 degrees) at 3 MPH (3 knots; 1.6 m/s)
Visibility: 0.25 miles (0.40 km)
Ceiling: at least 12,000 feet AGL
Clouds: scattered clouds at 100 feet AGL
scattered clouds at 4800 feet AGL
Present Weather: FZFG  (freezing fog)
KALB 311105Z 33003KT 1/4SM R01/P6000FT FZFG SCT001 SCT048 M01/M02 A3004 RMK AO2 VIS E-SE 10 T10061017

Conditions at: KALB observed 31 October 2014  10:51 UTC
Temperature: 0.6°C (33°F)
Dewpoint: -1.1°C (30°F) [RH = 88%]
Pressure (altimeter): 30.05 inches Hg (1017.7 mb)
[Sea-level pressure: 1017.7 mb]
Winds: calm
Visibility: 10 or more miles (16+ km)
Ceiling: at least 12,000 feet AGL
Clouds: few clouds at 100 feet AGL
few clouds at 4800 feet AGL
Present Weather: BCFG  (patches of fog)
KALB 311051Z 00000KT 10SM BCFG FEW001 FEW048 01/M01 A3005 RMK AO2 SLP177 VIS W-NW 1 1/2 BCFG SW-N T00061011

Conditions at: KALB observed 31 October 2014  09:51 UTC
Temperature: 1.1°C (34°F)
Dewpoint: -0.6°C (31°F) [RH = 88%]
Pressure (altimeter): 30.04 inches Hg (1017.4 mb)
[Sea-level pressure: 1017.6 mb]
Winds: calm
Visibility: 10 or more miles (16+ km)
Ceiling: at least 12,000 feet AGL
Clouds: few clouds at 4800 feet AGL
Present Weather: no significant weather observed at this time
KALB 310951Z 00000KT 10SM FEW048 01/M01 A3004 RMK AO2 SLP176 T00111006

Conditions at: KALB observed 31 October 2014  08:51 UTC
Temperature: 1.7°C (35°F)
Dewpoint: -0.6°C (31°F) [RH = 85%]
Pressure (altimeter): 30.04 inches Hg (1017.4 mb)
[Sea-level pressure: 1017.5 mb]
Winds: calm
Visibility: 10 or more miles (16+ km)
Ceiling: 4700 feet AGL
Clouds: broken clouds at 4700 feet AGL
Present Weather: no significant weather observed at this time
KALB 310851Z 00000KT 10SM BKN047 02/M01 A3004 RMK AO2 SLP175 T00171006 55000

Conditions at: KALB observed 31 October 2014  07:51 UTC
Temperature: 0.6°C (33°F)
Dewpoint: -1.1°C (30°F) [RH = 88%]
Pressure (altimeter): 30.04 inches Hg (1017.4 mb)
[Sea-level pressure: 1017.5 mb]
Winds: calm
Visibility: 10 or more miles (16+ km)
Ceiling: at least 12,000 feet AGL
Clouds: few clouds at 4700 feet AGL
Present Weather: no significant weather observed at this time
KALB 310751Z 00000KT 10SM FEW047 01/M01 A3004 RMK AO2 SLP175 T00061011

Conditions at: KALB observed 31 October 2014  06:51 UTC
Temperature: 0.6°C (33°F)
Dewpoint: -1.1°C (30°F) [RH = 88%]
Pressure (altimeter): 30.04 inches Hg (1017.4 mb)
[Sea-level pressure: 1017.4 mb]
Winds: calm
Visibility: 10 or more miles (16+ km)
Ceiling: at least 12,000 feet AGL
Clouds: scattered clouds at 4700 feet AGL
Present Weather: no significant weather observed at this time
KALB 310651Z 00000KT 10SM SCT047 01/M01 A3004 RMK AO2 SLP174 T00061011

Conditions at: KALB observed 31 October 2014  05:51 UTC
Temperature: 1.1°C (34°F)
Dewpoint: -0.6°C (31°F) [RH = 88%]
Pressure (altimeter): 30.04 inches Hg (1017.4 mb)
[Sea-level pressure: 1017.6 mb]
Winds: calm
Visibility: 10 or more miles (16+ km)
Ceiling: at least 12,000 feet AGL
Clouds: sky clear below 12,000 feet AGL
Present Weather: no significant weather observed at this time
KALB 310551Z 00000KT 10SM CLR 01/M01 A3004 RMK AO2 SLP176 T00111006 10072 20006 53000